Hulbert, MI (49748)

3:34 PM EDT on October 31, 2014 (GMT -0400)
Luce County | Change Station
CLOSE
Current Station
Airport
Location: Newberry,
Elevation: 869 ft
Nearby Weather Stations

Elev 869 ft 46.31 °N, 85.46 °W | Updated 20 minutes ago

Overcast
Overcast
32 °F
Feels Like 22 °F
N
13
Wind Variable Wind from North
Gusts 24 mph

Today
High -- | Low -- °F
--% Chance of Precip.
Yesterday
High -- | Low -- °F
Precip. -- in
8:20 AM 6:27 PM
First Quarter, 58% visible
Pressure 30.29 in
Visibility 10.0 miles
Clouds Mostly Cloudy 3600 ft
Overcast 4200 ft
Windchill 22 °F
Dew Point 22 °F
Humidity 67%
Rainfall 0.03 in
Snow Depth Not available.
UV 1 out of 12
Pollen .10 out of 12
Air Quality Not available.
Flu Activity Not available.
METAR KERY 311914Z AUTO 36011G21KT 10SM BKN036 OVC042 00/M05 A3029 RMK AO2 T00001054

More Conditions Fewer Conditions

Pressure 30.29 in
Visibility 10.0 miles
Clouds Mostly Cloudy 3600 ft
Overcast 4200 ft
Windchill 22 °F
Dew Point 22 °F
Humidity 67%
Rainfall 0.03 in
Snow Depth Not available.
UV 1 out of 12
Pollen .10 out of 12
Air Quality Not available.
Flu Activity Not available.
METAR KERY 311914Z AUTO 36011G21KT 10SM BKN036 OVC042 00/M05 A3029 RMK AO2 T00001054

More Conditions Fewer Conditions

Nowcast | as of 3:00 PM EDT on October 31, 2014

At 4 PM...partly sunny. Temperature 34. North winds 15 mph with gusts to 30 mph. At 6 PM...mostly clear. Temperature 33. North winds 14 mph with gusts to 25 mph. At 8 PM...mostly clear. Temperature 30. North winds 13 mph with gusts to 25 mph. At 10 PM...mostly clear. Temperature 29. North winds 10 mph.

×

10-Day Weather Forecast

Almanac

Astronomy

Oct. 31, 2014 Rise Set
Actual Time
Civil Twilight
Nautical Twilight
Astronomical Twilight
Moon
Length of Visible Light
Length of Day
Tomorrow will be .
, % of the Moon is Illuminated

Today's Extremes

State Highs State Lows

Community

WunderPhotos

Upload Photos

1,766,699 photos uploaded!

WunderBlogs® & News

Nearby

Air Quality

  Air Quality AQ Index Pollutant
Not available.

Snow Depth

Station Depth Elevation

Earthquake Activity

City Distance Mag. Time & Date
Minimum magnitude displayed is 2.5.

Coastal Water Temperatures

Place Temperature

Nearby Weather Stations